Time;durP1;ratioP1;P1;durP2;ratioP2;P2;SDS_P1;SDS_P2;PMS_P1;PMS_P2;Temp;Humidity;BMP_temperature;BMP_pressure;BME280_temperature;BME280_humidity;BME280_pressure;Samples;Min_cycle;Max_cycle;Signal;HPM_P1;HPM_P2
2023/01/07 00:02:54;;;;;;;11.30;6.22;;;;;;;;;;12843331;19;20477;-68
2023/01/07 00:07:12;;;;;;;12.07;5.60;;;;;;;;;;12844939;19;20623;-69
2023/01/07 00:11:35;;;;;;;9.53;5.33;;;;;;;;;;12845140;19;20375;-67
2023/01/07 00:16:07;;;;;;;11.00;5.88;;;;;;;;;;12844982;19;20307;-67
2023/01/07 00:20:24;;;;;;;9.55;5.20;;;;;;;;;;12843706;19;20447;-67
2023/01/07 00:24:42;;;;;;;11.83;5.70;;;;;;;;;;12843832;19;20347;-68
2023/01/07 00:29:00;;;;;;;8.88;5.38;;;;;;;;;;12844512;19;20485;-67
2023/01/07 00:33:18;;;;;;;6.07;4.23;;;;;;;;;;12843028;19;20309;-66
2023/01/07 00:37:48;;;;;;;7.85;4.80;;;;;;;;;;12841868;19;20344;-66
2023/01/07 00:46:44;;;;;;;6.82;4.20;;;;;;;;;;12844425;19;20363;-67
2023/01/07 00:51:02;;;;;;;9.03;4.53;;;;;;;;;;12842761;19;20388;-67
2023/01/07 00:55:20;;;;;;;8.00;4.32;;;;;;;;;;12845813;19;20431;-67
2023/01/07 00:59:38;;;;;;;6.63;3.92;;;;;;;;;;12842845;19;20489;-67
2023/01/07 01:03:56;;;;;;;6.90;4.37;;;;;;;;;;12843243;19;20501;-67
2023/01/07 01:08:13;;;;;;;9.83;5.27;;;;;;;;;;12840830;19;20561;-69
2023/01/07 01:12:31;;;;;;;7.10;3.72;;;;;;;;;;12841266;19;20310;-67
2023/01/07 01:16:49;;;;;;;7.30;4.10;;;;;;;;;;12840355;19;20456;-66
2023/01/07 01:21:09;;;;;;;9.65;4.10;;;;;;;;;;12839912;19;20429;-67
2023/01/07 01:25:27;;;;;;;7.22;4.18;;;;;;;;;;12841819;19;20016;-67
2023/01/07 01:29:45;;;;;;;8.50;4.43;;;;;;;;;;12840840;19;20469;-67
2023/01/07 01:34:02;;;;;;;6.53;3.83;;;;;;;;;;12839825;19;20460;-68
2023/01/07 01:38:20;;;;;;;9.20;4.00;;;;;;;;;;12838009;19;20307;-69
2023/01/07 01:42:38;;;;;;;5.55;4.25;;;;;;;;;;12839225;19;20365;-67
2023/01/07 01:46:55;;;;;;;8.07;3.95;;;;;;;;;;12841901;19;20490;-66
2023/01/07 01:51:16;;;;;;;8.18;4.38;;;;;;;;;;12835857;19;20315;-67
2023/01/07 01:55:41;;;;;;;5.47;3.22;;;;;;;;;;12838078;19;20376;-67
2023/01/07 01:59:59;;;;;;;5.60;3.78;;;;;;;;;;12838140;19;20489;-67
2023/01/07 02:04:21;;;;;;;7.33;4.50;;;;;;;;;;12838449;19;20504;-67
2023/01/07 02:08:38;;;;;;;7.13;4.28;;;;;;;;;;12837841;19;20324;-67
2023/01/07 02:13:16;;;;;;;9.00;4.32;;;;;;;;;;12334323;19;10001428;-67
2023/01/07 02:17:50;;;;;;;7.03;4.43;;;;;;;;;;12838312;19;20473;-67
2023/01/07 02:22:49;;;;;;;8.52;4.05;;;;;;;;;;12836049;19;20343;-67
2023/01/07 02:27:17;;;;;;;7.32;4.20;;;;;;;;;;12837344;19;20346;-67
2023/01/07 02:31:48;;;;;;;6.22;3.95;;;;;;;;;;12837276;19;20465;-67
2023/01/07 02:36:50;;;;;;;7.50;3.92;;;;;;;;;;12836477;19;20590;-67
2023/01/07 02:41:54;;;;;;;5.07;3.72;;;;;;;;;;12838654;19;20326;-67
2023/01/07 02:46:56;;;;;;;6.55;4.50;;;;;;;;;;12836168;19;20343;-69
2023/01/07 02:51:14;;;;;;;11.38;5.93;;;;;;;;;;12835957;19;20468;-67
2023/01/07 02:56:04;;;;;;;8.80;5.22;;;;;;;;;;12835313;19;20452;-67
2023/01/07 03:00:39;;;;;;;8.77;4.65;;;;;;;;;;12836815;19;20321;-69
2023/01/07 03:05:12;;;;;;;12.05;6.10;;;;;;;;;;12849283;19;20010;-67
2023/01/07 03:09:56;;;;;;;9.75;5.28;;;;;;;;;;12849042;19;20367;-67
2023/01/07 03:14:33;;;;;;;9.13;5.25;;;;;;;;;;12848204;19;20472;-67
2023/01/07 03:19:10;;;;;;;11.00;5.40;;;;;;;;;;12847044;19;20306;-67
2023/01/07 03:23:30;;;;;;;10.60;5.33;;;;;;;;;;12845917;19;20505;-67
2023/01/07 03:27:51;;;;;;;8.77;5.50;;;;;;;;;;12847919;19;20461;-66
2023/01/07 03:32:23;;;;;;;10.02;5.60;;;;;;;;;;12844985;19;20075;-68
2023/01/07 03:36:47;;;;;;;7.75;5.13;;;;;;;;;;12845000;19;20615;-66
2023/01/07 03:41:05;;;;;;;8.85;5.22;;;;;;;;;;12844888;19;20036;-67
2023/01/07 03:45:25;;;;;;;9.60;5.88;;;;;;;;;;12845208;19;20073;-67
2023/01/07 03:49:42;;;;;;;8.57;5.15;;;;;;;;;;12844152;19;20335;-67
2023/01/07 03:54:00;;;;;;;7.20;4.70;;;;;;;;;;12846443;19;20820;-68
2023/01/07 03:58:17;;;;;;;11.18;5.93;;;;;;;;;;12846626;19;20014;-67
2023/01/07 04:02:35;;;;;;;7.57;4.67;;;;;;;;;;12845549;19;20355;-67
2023/01/07 04:06:53;;;;;;;10.80;5.85;;;;;;;;;;12845697;19;20684;-69
2023/01/07 04:11:10;;;;;;;7.57;5.53;;;;;;;;;;12845432;19;20342;-66
2023/01/07 04:15:28;;;;;;;7.30;4.33;;;;;;;;;;12842771;19;20013;-67
2023/01/07 04:19:46;;;;;;;5.07;3.53;;;;;;;;;;12845493;19;20243;-67
2023/01/07 04:24:04;;;;;;;6.40;3.90;;;;;;;;;;12843381;19;20079;-66
2023/01/07 04:28:22;;;;;;;11.15;5.88;;;;;;;;;;12844672;19;20018;-67
2023/01/07 04:32:39;;;;;;;10.43;6.53;;;;;;;;;;12842191;19;20070;-66
2023/01/07 04:36:57;;;;;;;9.03;5.40;;;;;;;;;;12844813;19;20437;-67
2023/01/07 04:41:14;;;;;;;9.85;5.63;;;;;;;;;;12843007;19;20425;-66
2023/01/07 04:45:32;;;;;;;8.67;4.93;;;;;;;;;;12844655;19;20461;-67
2023/01/07 04:49:50;;;;;;;13.83;7.47;;;;;;;;;;12842117;19;20370;-66
2023/01/07 04:54:08;;;;;;;13.17;6.67;;;;;;;;;;12842707;19;20086;-67
2023/01/07 04:58:25;;;;;;;8.70;5.53;;;;;;;;;;12843346;19;20323;-66
2023/01/07 05:02:42;;;;;;;13.83;7.83;;;;;;;;;;12841420;19;20376;-67
2023/01/07 05:07:01;;;;;;;16.80;8.02;;;;;;;;;;12843439;19;20433;-66
2023/01/07 05:11:21;;;;;;;10.35;5.38;;;;;;;;;;12841671;19;20487;-68
2023/01/07 05:15:39;;;;;;;12.40;7.07;;;;;;;;;;12842020;19;20469;-68
2023/01/07 05:19:57;;;;;;;14.65;6.35;;;;;;;;;;12840348;19;20421;-66
2023/01/07 05:24:14;;;;;;;14.83;6.63;;;;;;;;;;12839564;19;20313;-66
2023/01/07 05:28:32;;;;;;;10.55;5.95;;;;;;;;;;12839908;19;20346;-67
2023/01/07 05:32:50;;;;;;;10.05;6.22;;;;;;;;;;12841183;19;20014;-66
2023/01/07 05:37:07;;;;;;;10.10;6.33;;;;;;;;;;12840621;19;20497;-67
2023/01/07 05:41:25;;;;;;;11.63;5.90;;;;;;;;;;12840519;19;20302;-69
2023/01/07 05:45:44;;;;;;;10.30;5.70;;;;;;;;;;12840876;19;20018;-66
2023/01/07 05:50:03;;;;;;;9.80;5.25;;;;;;;;;;12840808;19;20490;-67
2023/01/07 05:54:20;;;;;;;9.10;4.70;;;;;;;;;;12841426;19;20456;-67
2023/01/07 05:58:38;;;;;;;9.17;5.30;;;;;;;;;;12839798;19;20014;-67
2023/01/07 06:02:55;;;;;;;10.40;5.20;;;;;;;;;;12839563;19;20489;-66
2023/01/07 06:07:13;;;;;;;14.60;7.53;;;;;;;;;;12839244;19;20379;-67
2023/01/07 06:11:31;;;;;;;19.42;8.68;;;;;;;;;;12838969;19;20586;-68
2023/01/07 06:15:49;;;;;;;16.30;8.00;;;;;;;;;;12839892;19;20509;-68
2023/01/07 06:20:08;;;;;;;17.27;8.48;;;;;;;;;;12838415;19;20487;-66
2023/01/07 06:24:25;;;;;;;21.25;9.50;;;;;;;;;;12837849;19;20322;-66
2023/01/07 06:28:43;;;;;;;19.33;8.77;;;;;;;;;;12838494;19;20069;-67
2023/01/07 06:33:00;;;;;;;18.38;10.50;;;;;;;;;;12838485;19;20311;-66
2023/01/07 06:37:18;;;;;;;16.55;9.82;;;;;;;;;;12835115;19;20006;-67
2023/01/07 06:41:35;;;;;;;18.97;10.20;;;;;;;;;;12837035;19;20646;-67
2023/01/07 06:45:53;;;;;;;17.00;10.17;;;;;;;;;;12837556;19;20090;-66
2023/01/07 06:50:11;;;;;;;15.35;9.73;;;;;;;;;;12836027;19;20445;-67
2023/01/07 06:54:29;;;;;;;16.67;10.73;;;;;;;;;;12837311;19;20006;-68
2023/01/07 06:58:46;;;;;;;16.85;9.80;;;;;;;;;;12837081;19;20070;-68
2023/01/07 07:03:04;;;;;;;15.63;9.83;;;;;;;;;;12837306;19;20501;-67
2023/01/07 07:07:22;;;;;;;13.75;8.00;;;;;;;;;;12834887;19;20576;-66
2023/01/07 07:11:39;;;;;;;14.13;8.77;;;;;;;;;;12835007;19;20141;-68
2023/01/07 07:15:57;;;;;;;13.70;8.60;;;;;;;;;;8587538;19;10001161;-66
2023/01/07 07:20:16;;;;;;;19.95;12.00;;;;;;;;;;12833818;19;20489;-67
2023/01/07 07:24:34;;;;;;;14.97;8.90;;;;;;;;;;12835311;19;20031;-66
2023/01/07 07:28:51;;;;;;;13.50;8.70;;;;;;;;;;12835823;19;20022;-66
2023/01/07 07:33:11;;;;;;;13.83;8.73;;;;;;;;;;12833111;19;20031;-66
2023/01/07 07:37:28;;;;;;;34.45;18.70;;;;;;;;;;12834878;19;20489;-66
2023/01/07 07:41:46;;;;;;;18.60;11.07;;;;;;;;;;12834025;19;20641;-67
2023/01/07 07:46:04;;;;;;;25.27;14.37;;;;;;;;;;12834294;19;20359;-67
2023/01/07 07:50:22;;;;;;;14.27;7.68;;;;;;;;;;12847533;19;20403;-67
2023/01/07 07:54:39;;;;;;;20.20;11.27;;;;;;;;;;12846945;19;20461;-67
2023/01/07 07:58:57;;;;;;;13.70;9.07;;;;;;;;;;12849144;19;20460;-67
2023/01/07 08:03:15;;;;;;;14.50;9.32;;;;;;;;;;12844618;19;20489;-67
2023/01/07 08:07:32;;;;;;;18.00;10.40;;;;;;;;;;12846735;19;20425;-67
2023/01/07 08:11:53;;;;;;;23.83;13.73;;;;;;;;;;12846435;19;20375;-66
2023/01/07 08:16:11;;;;;;;14.05;8.75;;;;;;;;;;12843096;19;20023;-67
2023/01/07 08:20:32;;;;;;;12.60;7.57;;;;;;;;;;12844360;19;20480;-66
2023/01/07 08:24:49;;;;;;;14.30;7.97;;;;;;;;;;12843609;19;20498;-66
2023/01/07 08:29:07;;;;;;;11.90;7.63;;;;;;;;;;12843811;19;20451;-68
2023/01/07 08:33:25;;;;;;;14.35;7.75;;;;;;;;;;12844530;19;20481;-68
2023/01/07 08:37:43;;;;;;;14.40;9.77;;;;;;;;;;12844577;19;20482;-67
2023/01/07 08:42:00;;;;;;;10.93;6.77;;;;;;;;;;12842148;19;20310;-66
2023/01/07 08:46:18;;;;;;;13.82;8.48;;;;;;;;;;12843869;19;20038;-69
2023/01/07 08:50:36;;;;;;;12.37;7.33;;;;;;;;;;12843993;19;20052;-67
2023/01/07 08:54:53;;;;;;;11.95;8.18;;;;;;;;;;12844595;19;20472;-66
2023/01/07 08:59:11;;;;;;;12.88;8.68;;;;;;;;;;12840659;19;20490;-66
2023/01/07 09:03:29;;;;;;;19.02;11.95;;;;;;;;;;12843589;19;20472;-67
2023/01/07 09:07:52;;;;;;;21.07;12.63;;;;;;;;;;12846354;19;20376;-67
2023/01/07 09:12:09;;;;;;;27.10;14.32;;;;;;;;;;12841815;19;20367;-67
2023/01/07 09:16:27;;;;;;;25.85;13.38;;;;;;;;;;12843219;19;20819;-66
2023/01/07 09:20:45;;;;;;;28.10;14.90;;;;;;;;;;12841753;19;20370;-67
2023/01/07 09:25:04;;;;;;;26.30;14.65;;;;;;;;;;12841146;19;20371;-70
2023/01/07 09:29:22;;;;;;;21.55;13.05;;;;;;;;;;12839556;19;20313;-67
2023/01/07 09:33:40;;;;;;;18.73;11.67;;;;;;;;;;12841798;19;20477;-66
2023/01/07 09:37:57;;;;;;;22.47;13.07;;;;;;;;;;12841045;19;20014;-67
2023/01/07 09:42:30;;;;;;;21.03;11.73;;;;;;;;;;12838280;19;20585;-67
2023/01/07 09:46:52;;;;;;;19.48;10.85;;;;;;;;;;12840173;19;20376;-68
2023/01/07 09:51:37;;;;;;;55.78;20.23;;;;;;;;;;12839156;19;20493;-67
2023/01/07 09:55:55;;;;;;;26.17;14.05;;;;;;;;;;12840230;19;20497;-67
2023/01/07 10:00:33;;;;;;;18.02;9.57;;;;;;;;;;12838917;19;20476;-67
2023/01/07 10:05:37;;;;;;;19.80;11.32;;;;;;;;;;12837304;19;20370;-67
2023/01/07 10:10:28;;;;;;;22.50;10.93;;;;;;;;;;12834764;19;20627;-67
2023/01/07 10:15:14;;;;;;;18.90;10.15;;;;;;;;;;12837836;19;20460;-66
2023/01/07 10:20:03;;;;;;;22.58;13.98;;;;;;;;;;12839139;19;20362;-67
2023/01/07 10:24:31;;;;;;;20.08;11.93;;;;;;;;;;12836364;19;20469;-66
2023/01/07 10:29:03;;;;;;;22.35;13.57;;;;;;;;;;12839344;19;20392;-69
2023/01/07 10:33:29;;;;;;;32.85;18.67;;;;;;;;;;12838265;19;23631;-66
2023/01/07 10:37:47;;;;;;;22.65;13.10;;;;;;;;;;12837666;19;20121;-68
2023/01/07 10:42:27;;;;;;;25.50;15.03;;;;;;;;;;12835499;19;20070;-67
2023/01/07 10:47:07;;;;;;;25.95;14.05;;;;;;;;;;12837475;19;20359;-67
2023/01/07 10:52:17;;;;;;;28.30;15.15;;;;;;;;;;12836180;19;20473;-67
2023/01/07 10:56:41;;;;;;;26.30;15.30;;;;;;;;;;12834017;19;20063;-66
2023/01/07 11:00:59;;;;;;;27.80;15.40;;;;;;;;;;12837127;19;20368;-67
2023/01/07 11:05:20;;;;;;;29.92;14.55;;;;;;;;;;12835798;19;20007;-66
2023/01/07 11:09:42;;;;;;;26.92;16.42;;;;;;;;;;12834271;19;20570;-67
2023/01/07 11:14:11;;;;;;;29.15;16.92;;;;;;;;;;12836373;19;20482;-67
2023/01/07 11:18:38;;;;;;;34.50;18.02;;;;;;;;;;12834961;19;20465;-66
2023/01/07 11:23:36;;;;;;;29.88;17.05;;;;;;;;;;12798506;19;20452;-67
2023/01/07 11:28:18;;;;;;;25.10;13.85;;;;;;;;;;12770090;19;20434;-67
2023/01/07 11:33:38;;;;;;;20.25;11.43;;;;;;;;;;12819646;19;20391;-67
2023/01/07 11:38:45;;;;;;;26.25;13.65;;;;;;;;;;12844908;19;20363;-68
2023/01/07 11:43:21;;;;;;;21.05;12.50;;;;;;;;;;12839311;19;20545;-67
2023/01/07 11:47:47;;;;;;;28.45;15.85;;;;;;;;;;12846425;19;20380;-67
2023/01/07 11:52:04;;;;;;;23.05;13.10;;;;;;;;;;12845553;19;20078;-68
2023/01/07 11:56:27;;;;;;;15.93;8.93;;;;;;;;;;12844791;19;20550;-66
2023/01/07 12:00:45;;;;;;;24.23;12.75;;;;;;;;;;12845429;19;20477;-67
2023/01/07 12:05:25;;;;;;;14.50;9.38;;;;;;;;;;12844204;19;20590;-67
2023/01/07 12:09:44;;;;;;;9.55;6.00;;;;;;;;;;12842736;19;20472;-66
2023/01/07 12:14:17;;;;;;;8.60;6.15;;;;;;;;;;12845453;19;20021;-67
2023/01/07 12:18:54;;;;;;;7.93;5.32;;;;;;;;;;12843566;19;20469;-67
2023/01/07 12:23:29;;;;;;;7.97;4.80;;;;;;;;;;12843323;19;20457;-66
2023/01/07 12:28:11;;;;;;;4.90;3.72;;;;;;;;;;12842078;19;20371;-67
2023/01/07 12:32:52;;;;;;;8.07;4.72;;;;;;;;;;12843829;19;20460;-67
2023/01/07 12:37:56;;;;;;;9.63;5.43;;;;;;;;;;12842714;19;20371;-67
2023/01/07 12:42:23;;;;;;;8.90;4.72;;;;;;;;;;12835670;19;20603;-67
2023/01/07 12:46:56;;;;;;;7.53;4.45;;;;;;;;;;12840872;19;20372;-67
2023/01/07 12:52:26;;;;;;;11.40;7.43;;;;;;;;;;12842156;19;20007;-67
2023/01/07 12:56:54;;;;;;;7.85;4.80;;;;;;;;;;12839678;19;20465;-66
2023/01/07 13:01:40;;;;;;;7.85;4.47;;;;;;;;;;12840234;19;20468;-66
2023/01/07 13:06:20;;;;;;;7.03;3.92;;;;;;;;;;12841383;19;20010;-67
2023/01/07 13:10:47;;;;;;;7.20;3.80;;;;;;;;;;12840051;19;20536;-66
2023/01/07 13:15:28;;;;;;;6.35;4.20;;;;;;;;;;12839797;19;20448;-67
2023/01/07 13:19:46;;;;;;;5.00;3.50;;;;;;;;;;12840653;19;20426;-66
2023/01/07 13:24:28;;;;;;;9.70;4.78;;;;;;;;;;12841525;19;20011;-68
2023/01/07 13:29:23;;;;;;;30.52;13.60;;;;;;;;;;12840434;19;20472;-67
2023/01/07 13:34:09;;;;;;;47.05;23.80;;;;;;;;;;12843298;19;20382;-67
2023/01/07 13:38:38;;;;;;;10.52;5.80;;;;;;;;;;12840657;19;20375;-67
2023/01/07 13:43:03;;;;;;;13.68;7.32;;;;;;;;;;12838187;19;20429;-67
2023/01/07 13:47:25;;;;;;;10.52;5.25;;;;;;;;;;12838152;19;20360;-67
2023/01/07 13:51:42;;;;;;;17.45;9.25;;;;;;;;;;12838589;19;20426;-67
2023/01/07 13:56:18;;;;;;;14.30;9.37;;;;;;;;;;12841321;19;20352;-67
2023/01/07 14:01:34;;;;;;;20.33;7.70;;;;;;;;;;12839113;19;20437;-66
2023/01/07 14:06:20;;;;;;;13.15;8.00;;;;;;;;;;12838857;19;20379;-66
2023/01/07 14:10:38;;;;;;;13.95;8.43;;;;;;;;;;12839403;19;20294;-66
2023/01/07 14:15:35;;;;;;;;;;;;;;;;;;12837697;19;20473;-66
2023/01/07 14:20:13;;;;;;;5.43;3.63;;;;;;;;;;12836893;19;20322;-67
2023/01/07 14:24:56;;;;;;;;;;;;;;;;;;12838610;19;20649;-66
2023/01/07 14:29:47;;;;;;;5.45;3.45;;;;;;;;;;12839733;19;20281;-66
2023/01/07 14:34:16;;;;;;;7.53;3.92;;;;;;;;;;12836759;19;20522;-66
2023/01/07 14:38:33;;;;;;;9.13;4.70;;;;;;;;;;12833872;19;20496;-65
2023/01/07 14:42:53;;;;;;;8.43;5.25;;;;;;;;;;12834588;19;20298;-65
2023/01/07 14:47:10;;;;;;;9.32;6.40;;;;;;;;;;12834821;19;20010;-66
2023/01/07 14:51:45;;;;;;;18.27;8.98;;;;;;;;;;12834925;19;20504;-67
2023/01/07 14:56:36;;;;;;;16.42;10.10;;;;;;;;;;12833471;19;20502;-66
2023/01/07 15:01:28;;;;;;;25.00;10.75;;;;;;;;;;12835660;19;20371;-65
2023/01/07 15:06:19;;;;;;;20.02;10.25;;;;;;;;;;12835549;19;20367;-65
2023/01/07 15:20:11;;;;;;;25.90;13.70;;;;;;;;;;12834023;19;20351;-66
2023/01/07 15:25:16;;;;;;;44.65;20.05;;;;;;;;;;12833059;19;20515;-67
2023/01/07 15:30:31;;;;;;;55.30;24.98;;;;;;;;;;12834242;19;20493;-65
2023/01/07 15:34:49;;;;;;;49.20;19.60;;;;;;;;;;12829577;19;20388;-65
2023/01/07 15:39:32;;;;;;;27.90;13.10;;;;;;;;;;12834265;19;20351;-65
2023/01/07 15:43:51;;;;;;;41.13;15.00;;;;;;;;;;12833592;19;20022;-66
2023/01/07 15:48:11;;;;;;;39.42;15.43;;;;;;;;;;12831648;19;20307;-66
2023/01/07 15:52:29;;;;;;;28.90;12.82;;;;;;;;;;12833626;19;20575;-66
2023/01/07 15:56:48;;;;;;;23.65;11.82;;;;;;;;;;12834208;19;20744;-65
2023/01/07 16:01:23;;;;;;;20.83;11.20;;;;;;;;;;12831214;19;20362;-68
2023/01/07 16:05:42;;;;;;;24.88;14.43;;;;;;;;;;12832415;19;20396;-67
2023/01/07 16:10:00;;;;;;;42.25;16.48;;;;;;;;;;12837413;19;20372;-65
2023/01/07 16:14:23;;;;;;;26.63;11.25;;;;;;;;;;12844775;19;20417;-66
2023/01/07 16:18:56;;;;;;;25.35;11.80;;;;;;;;;;12844982;19;20369;-65
2023/01/07 16:23:21;;;;;;;21.05;11.95;;;;;;;;;;12841726;19;20348;-65
2023/01/07 16:27:39;;;;;;;22.77;11.35;;;;;;;;;;12842532;19;20428;-68
2023/01/07 16:31:58;;;;;;;17.67;9.60;;;;;;;;;;12844457;19;20014;-65
2023/01/07 16:36:27;;;;;;;19.85;9.48;;;;;;;;;;12843846;19;20460;-65
2023/01/07 16:40:45;;;;;;;14.32;7.53;;;;;;;;;;12842098;19;20403;-65
2023/01/07 16:45:25;;;;;;;21.77;8.20;;;;;;;;;;12841092;19;20710;-66
2023/01/07 16:49:44;;;;;;;19.65;8.73;;;;;;;;;;12841890;19;20429;-65
2023/01/07 16:54:21;;;;;;;35.63;16.58;;;;;;;;;;12841214;19;20436;-67
2023/01/07 16:58:47;;;;;;;43.13;19.33;;;;;;;;;;12842211;19;20334;-67
2023/01/07 17:03:05;;;;;;;33.80;17.92;;;;;;;;;;12841513;19;20562;-65
2023/01/07 17:07:25;;;;;;;55.80;23.42;;;;;;;;;;12840470;19;20018;-65
2023/01/07 17:11:42;;;;;;;58.45;26.83;;;;;;;;;;12839642;19;20294;-64
2023/01/07 17:16:26;;;;;;;55.38;26.70;;;;;;;;;;12842414;19;20372;-68
2023/01/07 17:20:48;;;;;;;56.42;26.58;;;;;;;;;;12841627;19;20496;-65
2023/01/07 17:25:18;;;;;;;58.50;27.83;;;;;;;;;;12839560;19;20377;-65
2023/01/07 17:29:38;;;;;;;62.03;32.63;;;;;;;;;;12841494;19;20359;-65
2023/01/07 17:33:55;;;;;;;67.00;33.80;;;;;;;;;;12748773;19;20014;-66
2023/01/07 17:38:15;;;;;;;65.33;33.20;;;;;;;;;;12840570;19;20492;-64
2023/01/07 17:47:10;;;;;;;68.18;31.75;;;;;;;;;;12840200;19;20032;-64
2023/01/07 17:51:28;;;;;;;70.95;33.65;;;;;;;;;;12840276;19;20485;-66
2023/01/07 17:55:46;;;;;;;60.38;29.05;;;;;;;;;;12838292;19;20495;-65
2023/01/07 18:00:05;;;;;;;66.90;33.78;;;;;;;;;;12838944;19;20480;-67
2023/01/07 18:04:23;;;;;;;67.53;32.65;;;;;;;;;;12840604;19;20050;-64
2023/01/07 18:08:40;;;;;;;67.30;32.63;;;;;;;;;;12839672;19;20425;-65
2023/01/07 18:12:58;;;;;;;57.67;28.98;;;;;;;;;;12839582;19;20018;-67
2023/01/07 18:17:16;;;;;;;57.73;26.80;;;;;;;;;;12839063;19;20493;-65
2023/01/07 18:21:33;;;;;;;51.20;26.45;;;;;;;;;;12836966;19;20548;-66
2023/01/07 18:25:51;;;;;;;58.70;29.30;;;;;;;;;;12837696;19;20441;-66
2023/01/07 18:30:16;;;;;;;54.75;28.05;;;;;;;;;;12837968;19;20430;-65
2023/01/07 18:34:34;;;;;;;59.72;28.27;;;;;;;;;;12835353;19;20032;-64
2023/01/07 18:38:52;;;;;;;51.85;25.75;;;;;;;;;;12837796;19;20482;-65
2023/01/07 18:43:17;;;;;;;43.60;24.53;;;;;;;;;;12836738;19;20445;-65
2023/01/07 18:47:34;;;;;;;52.33;25.23;;;;;;;;;;12835886;19;20469;-65
2023/01/07 18:51:52;;;;;;;56.28;23.38;;;;;;;;;;12837039;19;20474;-66
2023/01/07 18:56:11;;;;;;;50.13;26.85;;;;;;;;;;12835789;19;20378;-67
2023/01/07 19:00:29;;;;;;;50.83;26.83;;;;;;;;;;12837023;19;20461;-65
2023/01/07 19:04:48;;;;;;;63.40;31.33;;;;;;;;;;12834293;19;20599;-64
2023/01/07 19:09:06;;;;;;;63.58;32.25;;;;;;;;;;12835491;19;20489;-66
2023/01/07 19:13:23;;;;;;;70.60;35.13;;;;;;;;;;12835563;19;20496;-65
2023/01/07 19:17:41;;;;;;;102.10;43.03;;;;;;;;;;12836976;19;20359;-65
2023/01/07 19:21:59;;;;;;;66.07;32.65;;;;;;;;;;12835999;19;20521;-65
2023/01/07 19:26:18;;;;;;;74.40;40.55;;;;;;;;;;12834639;19;20275;-65
2023/01/07 19:30:35;;;;;;;70.40;35.07;;;;;;;;;;12836620;19;20481;-64
2023/01/07 19:34:53;;;;;;;52.37;28.17;;;;;;;;;;12836375;19;20482;-64
2023/01/07 19:39:14;;;;;;;60.15;30.48;;;;;;;;;;12834757;19;20505;-66
2023/01/07 19:43:31;;;;;;;62.42;31.55;;;;;;;;;;12838182;19;20391;-64
2023/01/07 19:47:50;;;;;;;56.60;27.77;;;;;;;;;;12846614;19;20382;-65
2023/01/07 19:52:07;;;;;;;56.47;30.25;;;;;;;;;;12846121;19;20514;-65
2023/01/07 19:56:25;;;;;;;56.83;28.83;;;;;;;;;;12848442;19;20406;-66
2023/01/07 20:00:43;;;;;;;57.63;29.77;;;;;;;;;;12845044;19;20440;-65
2023/01/07 20:05:01;;;;;;;51.88;27.08;;;;;;;;;;12847317;19;20015;-65
2023/01/07 20:09:19;;;;;;;58.10;28.50;;;;;;;;;;12845917;19;20469;-67
2023/01/07 20:13:38;;;;;;;54.72;29.33;;;;;;;;;;12845959;19;20410;-66
2023/01/07 20:17:56;;;;;;;82.78;40.15;;;;;;;;;;12847321;19;20326;-65
2023/01/07 20:22:14;;;;;;;76.37;39.30;;;;;;;;;;12844488;19;20477;-65
2023/01/07 20:26:34;;;;;;;220.50;68.33;;;;;;;;;;12844592;19;20804;-66
2023/01/07 20:30:51;;;;;;;262.85;76.20;;;;;;;;;;12845118;19;20414;-64
2023/01/07 20:35:09;;;;;;;128.23;50.20;;;;;;;;;;12843450;19;20438;-64
2023/01/07 20:39:27;;;;;;;258.30;70.25;;;;;;;;;;12844917;19;20441;-65
2023/01/07 20:43:59;;;;;;;186.20;55.63;;;;;;;;;;12842935;19;20490;-64
2023/01/07 20:48:18;;;;;;;159.27;50.25;;;;;;;;;;12843012;19;20343;-64
2023/01/07 20:52:35;;;;;;;70.10;30.23;;;;;;;;;;12844090;19;20770;-64
2023/01/07 20:56:53;;;;;;;90.35;36.83;;;;;;;;;;12840525;19;20473;-65
2023/01/07 21:01:14;;;;;;;96.87;40.13;;;;;;;;;;12842985;19;20287;-66
2023/01/07 21:05:36;;;;;;;104.97;44.33;;;;;;;;;;12842206;19;20345;-65
2023/01/07 21:09:54;;;;;;;108.88;44.70;;;;;;;;;;12841932;19;20634;-65
2023/01/07 21:14:12;;;;;;;106.03;45.47;;;;;;;;;;12841498;19;20466;-65
2023/01/07 21:18:30;;;;;;;82.70;38.37;;;;;;;;;;12842681;19;20315;-64
2023/01/07 21:22:48;;;;;;;310.90;131.55;;;;;;;;;;12840938;19;20371;-67
2023/01/07 21:27:06;;;;;;;288.87;116.37;;;;;;;;;;12839958;19;20486;-66
2023/01/07 21:31:25;;;;;;;194.43;79.30;;;;;;;;;;12841692;19;20354;-65
2023/01/07 21:35:43;;;;;;;73.93;34.65;;;;;;;;;;12839864;19;20477;-64
2023/01/07 21:40:01;;;;;;;75.83;34.93;;;;;;;;;;12841606;19;20302;-65
2023/01/07 21:44:18;;;;;;;112.97;44.33;;;;;;;;;;12837432;19;20469;-66
2023/01/07 21:48:39;;;;;;;70.47;30.70;;;;;;;;;;12837993;19;20668;-66
2023/01/07 21:52:57;;;;;;;68.57;31.48;;;;;;;;;;12839981;19;20010;-65
2023/01/07 21:57:15;;;;;;;156.45;53.33;;;;;;;;;;12839516;19;20519;-65
2023/01/07 22:01:33;;;;;;;304.13;85.78;;;;;;;;;;12838038;19;20003;-64
2023/01/07 22:05:58;;;;;;;;;;;;;;;;;;12838922;19;20562;-65
2023/01/07 22:10:16;;;;;;;63.97;29.67;;;;;;;;;;12840302;19;20282;-65
2023/01/07 22:14:33;;;;;;;260.83;70.13;;;;;;;;;;12837019;19;20351;-67
2023/01/07 22:18:51;;;;;;;114.93;39.92;;;;;;;;;;12838942;19;20472;-65
2023/01/07 22:23:18;;;;;;;124.20;41.57;;;;;;;;;;12838889;19;20081;-66
2023/01/07 22:27:35;;;;;;;86.00;33.15;;;;;;;;;;12838256;19;20709;-65
2023/01/07 22:31:53;;;;;;;150.27;48.77;;;;;;;;;;12838434;19;20319;-65
2023/01/07 22:36:16;;;;;;;286.43;72.07;;;;;;;;;;12837522;19;20031;-65
2023/01/07 22:40:36;;;;;;;297.15;76.22;;;;;;;;;;12837954;19;20465;-65
2023/01/07 22:45:02;;;;;;;391.33;101.85;;;;;;;;;;12836969;19;20474;-64
2023/01/07 22:49:25;;;;;;;308.75;75.32;;;;;;;;;;12837871;19;20501;-66
2023/01/07 22:53:49;;;;;;;215.93;56.42;;;;;;;;;;12836201;19;20497;-64
2023/01/07 22:58:07;;;;;;;247.85;62.17;;;;;;;;;;12834753;19;20347;-64
2023/01/07 23:02:24;;;;;;;54.10;22.80;;;;;;;;;;12836156;19;20035;-65
2023/01/07 23:06:42;;;;;;;374.80;90.37;;;;;;;;;;12835542;19;20291;-65
2023/01/07 23:10:59;;;;;;;60.63;26.42;;;;;;;;;;12836262;19;20465;-65
2023/01/07 23:15:17;;;;;;;141.93;41.38;;;;;;;;;;12834769;19;20314;-64
2023/01/07 23:19:34;;;;;;;297.02;74.32;;;;;;;;;;12845888;19;20014;-67
2023/01/07 23:23:52;;;;;;;161.33;45.70;;;;;;;;;;12847695;19;20028;-65
2023/01/07 23:28:09;;;;;;;110.20;33.10;;;;;;;;;;12849360;19;20323;-65
2023/01/07 23:32:27;;;;;;;280.60;67.53;;;;;;;;;;12849978;19;20496;-66
2023/01/07 23:36:45;;;;;;;51.85;22.42;;;;;;;;;;12845735;19;20350;-65
2023/01/07 23:41:06;;;;;;;79.53;29.10;;;;;;;;;;12845815;19;20019;-65
2023/01/07 23:45:23;;;;;;;148.48;41.15;;;;;;;;;;12846077;19;20010;-65
2023/01/07 23:49:41;;;;;;;135.63;40.40;;;;;;;;;;12846350;19;20448;-65
2023/01/07 23:53:59;;;;;;;128.02;36.70;;;;;;;;;;12847614;19;20380;-66
2023/01/07 23:58:17;;;;;;;59.10;23.33;;;;;;;;;;12845594;19;20377;-64
